Main page


Airports :

Dortmund, Germany

Dortmund Airport

latitude: 51-31N, longitude: 007-37E, elevation: 127 m

Current weather observation

The report was made 20 minutes ago, at 05:50 UTC
Wind 5 kt from the West/Southwest, varying between South/Southwest and West
Temperature -3°C
Humidity 93%
Pressure 1015 hPa
Visibility: 3500 m
Overcast at a height of 500 ft

METAR: EDLW 200550Z 25005KT 200V280 3500 BR OVC005 M03/M04 Q1015

Time: 07:10 (06:10 UTC)


The report was made 39 minutes ago, at 05:31 UTC
Forecast valid from 20 at 06 UTC to 21 at 06 UTC
Wind 6 kt from the West
Visibility: 2000 m
Broken clouds at a height of 700 ft
light snow, mist
from 20 at 06 UTC to 20 at 09 UTC
Visibility 10 km or more
from 20 at 07 UTC to 20 at 10 UTC
Wind 10 kt from the North
Broken clouds at a height of 2000 ft
from 20 at 17 UTC to 20 at 20 UTC
Wind 5 kt from the North/Northwest

TAF: EDLW 200531Z 2006/2106 28006KT 2000 -SN BR BKN007 BECMG 2006/2009 9999 BECMG 2007/2010 36010KT BKN020 BECMG 2017/2020 34005KT

Weather observations and forecasts of more than 4000 airports (METAR and TAF reports).

The available stations are represented by yellow and red dots on the map.

Hover mouse over dot to see the name of the station.

Then click to see weather observations and forecasts.

To change the map : click on the green buttons with a black cross to zoom in, on the green button with a dash to zoom out, or on the green arrows for adjacent maps.